Marco Polo — C6JZ7 — position and weather

sailwx.info

Track history (hours):
 
Tides and Currents Weather Stations Pressure Air Temp Water Temp Dewpoint Dewpoint Depression Visibility Wind Speed Wind Dir Waves Ship Positions

Marco Polo

Operator: Orient Lines

Last reported at 2016-May-31 03:28 UTC. Time now 2016-May-31 07:51 UTC.
Position N 60°01' E 024°57'.

Type: Ship. MMSI: 308691456.

Date/timePositionNaut miles runAvg speedWind from/ knotsBaromVisibWave heightAir tempDewpointWater temp
2016-May-31 03:28N 60°01' E 024°57'1914.9
2016-May-31 02:10N 59°55' E 025°34'1016.7
2016-May-31 01:34N 59°56' E 025°54'1716.9
2016-May-31 00:33N 60°01' E 026°27'1716.7
2016-May-30 23:33N 59°59' E 027°01'1716.7
2016-May-30 22:33N 60°08' E 027°30'1615.6
2016-May-30 21:33N 60°10' E 028°00'1716.7
2016-May-30 20:33N 60°03' E 028°31'1716.8
2016-May-30 19:33N 60°02' E 029°05'2512.3
2016-May-30 17:33N 59°57' E 029°53'8 7.8
2016-May-30 16:33N 59°57' E 030°08'2 1.6
2016-May-30 15:31N 59°57' E 030°12'0 0.0
2016-May-30 14:31N 59°57' E 030°12'0 0.0
2016-May-30 13:31N 59°57' E 030°12'0 0.0
2016-May-30 12:31N 59°57' E 030°12'0 0.0
2016-May-30 11:28N 59°57' E 030°12'0 0.0
2016-May-30 10:31N 59°57' E 030°12'0 0.0
2016-May-30 09:31N 59°57' E 030°12'0 0.0
2016-May-30 08:31N 59°57' E 030°12'0 0.0
2016-May-30 07:28N 59°57' E 030°12'0 0.0
2016-May-30 06:28N 59°57' E 030°12'0 0.0
2016-May-30 05:31N 59°57' E 030°12'0 0.0
2016-May-30 04:31N 59°57' E 030°12'0 0.0
2016-May-30 03:31N 59°57' E 030°12'0 0.0
2016-May-30 02:31N 59°57' E 030°12'0 0.0
2016-May-30 01:31N 59°57' E 030°12'0 0.0
2016-May-30 00:31N 59°57' E 030°12'0 0.0
2016-May-29 23:31N 59°57' E 030°12'0 0.0
2016-May-29 22:31N 59°57' E 030°12'0 0.0
2016-May-29 21:31N 59°57' E 030°12'0 0.0
2016-May-29 20:31N 59°57' E 030°12'0 0.0
2016-May-29 19:31N 59°57' E 030°12'0 0.0
2016-May-29 18:31N 59°57' E 030°12'0 0.0
2016-May-29 17:31N 59°57' E 030°12'0 0.0
2016-May-29 16:31N 59°57' E 030°12'0 0.0
2016-May-29 15:31N 59°57' E 030°12'0 0.0
2016-May-29 14:31N 59°57' E 030°12'0 0.0
2016-May-29 13:31N 59°57' E 030°12'0 0.0
2016-May-29 12:31N 59°57' E 030°12'0 0.0
2016-May-29 11:31N 59°57' E 030°12'0 0.0
2016-May-29 10:31N 59°57' E 030°12'0 0.0
2016-May-29 09:31N 59°57' E 030°12'0 0.0
2016-May-29 08:31N 59°57' E 030°12'0 0.0
2016-May-29 07:31N 59°57' E 030°12'0 0.0
2016-May-29 06:31N 59°57' E 030°12'0 0.0
2016-May-29 05:31N 59°57' E 030°12'0 0.0
2016-May-29 04:31N 59°57' E 030°12'0 0.0
2016-May-29 03:33N 59°57' E 030°12'7 6.8
2016-May-29 02:33N 59°56' E 029°58'3511.8
2016-May-28 23:34N 60°02' E 028°49'1413.6
2016-May-28 22:33N 60°04' E 028°22'1413.7
2016-May-28 21:33N 60°10' E 027°57'1313.2
2016-May-28 20:33N 60°06' E 027°31'1514.3
2016-May-28 19:29N 59°58' E 027°05'1414.9
2016-May-28 18:33N 59°59' E 026°37'6412.9
2016-May-28 13:34N 59°28' E 024°46'0 0.1
2016-May-28 06:33N 59°27' E 024°46'7 7.0
2016-May-28 05:33N 59°30' E 024°33'2814.2
2016-May-28 03:33N 59°28' E 023°38'1716.9
2016-May-28 02:33N 59°26' E 023°04'1616.4
2016-May-28 01:33N 59°23' E 022°33'31416.4
2016-May-27 06:26N 55°42' E 015°37'1516.5
2016-May-27 05:33N 55°35' E 015°15'1616.4
2016-May-27 04:33N 55°27' E 014°49'1616.2
2016-May-27 03:33N 55°16' E 014°28'1716.8
2016-May-27 02:33N 55°03' E 014°10'1716.7
2016-May-27 01:33N 54°56' E 013°43'1716.9
2016-May-27 00:33N 54°51' E 013°16'1716.7
2016-May-26 23:33N 54°45' E 012°48'1615.6
2016-May-26 22:33N 54°37' E 012°25'1515.5
2016-May-26 21:33N 54°24' E 012°10'1313.2
2016-May-26 20:32N 54°11' E 012°05'1 0.6
2016-May-26 19:27N 54°11' E 012°06'0 0.0
2016-May-26 18:21N 54°11' E 012°06'0 0.0
2016-May-26 16:33N 54°11' E 012°06'0 0.0
2016-May-26 15:30N 54°11' E 012°06'0 0.0
2016-May-26 14:09N 54°11' E 012°06'0 0.0
2016-May-26 12:33N 54°11' E 012°06'0 0.0
2016-May-26 11:33N 54°11' E 012°06'0 0.0
2016-May-26 10:33N 54°11' E 012°06'0 0.0
2016-May-26 09:12N 54°11' E 012°06'0 0.0
2016-May-26 08:33N 54°11' E 012°06'0 0.0
2016-May-26 07:33N 54°11' E 012°06'0 0.0
2016-May-26 06:20N 54°11' E 012°06'0 0.1
2016-May-26 05:33N 54°11' E 012°06'10 9.8
2016-May-26 04:33N 54°18' E 011°55'1414.0
2016-May-26 03:33N 54°26' E 011°35'1514.6
2016-May-26 02:33N 54°34' E 011°14'1615.8
2016-May-26 01:33N 54°43' E 010°52'1515.2
2016-May-26 00:33N 54°58' E 010°58'1615.6
2016-May-25 23:31N 55°14' E 011°06'5015.0
2016-May-25 20:12N 56°03' E 011°06'2916.0
2016-May-25 18:22N 56°10' E 011°57'1315.9
2016-May-25 17:33N 56°12' E 012°20'1716.7
2016-May-25 16:34N 56°00' E 012°41'1615.6
2016-May-25 15:33N 55°45' E 012°41'4 3.8
2016-May-25 14:33N 55°42' E 012°36'0 0.0
2016-May-25 13:33N 55°42' E 012°36'0 0.0
2016-May-25 12:33N 55°42' E 012°36'0 0.0
2016-May-25 11:33N 55°42' E 012°36'0 0.0
2016-May-25 10:33N 55°42' E 012°36'0 0.0
2016-May-25 09:33N 55°42' E 012°36'4 4.5
2016-May-25 08:33N 55°45' E 012°41'1313.1
2016-May-25 07:34N 55°58' E 012°37'1514.6
2016-May-25 06:33N 56°10' E 012°22'1717.4
2016-May-25 05:33N 56°23' E 011°59'1818.3
2016-May-25 04:33N 56°40' E 011°53'1818.3
2016-May-25 03:33N 56°58' E 011°43'1818.1
2016-May-25 02:33N 57°15' E 011°32'1817.6
2016-May-25 01:33N 57°31' E 011°18'1817.8
2016-May-25 00:33N 57°43' E 010°53'1716.6
2016-May-24 23:33N 57°46' E 010°23'37415.6
2016-May-23 23:31N 54°02' E 001°29'1616.7
2016-May-23 22:33N 53°53' E 001°06'1917.2
2016-May-23 21:26N 53°44' E 000°38'1516.7
2016-May-23 20:33N 53°35' E 000°18'1212.2
2016-May-23 19:33N 53°36' W 000°02'1211.9
2016-May-23 18:33N 53°44' W 000°16'0 0.4
2016-May-23 17:28N 53°45' W 000°16'0 0.0
2016-May-23 16:31N 53°45' W 000°16'0 0.0
2016-May-23 15:31N 53°45' W 000°16'0 0.0
2016-May-23 14:31N 53°45' W 000°16'0 0.0
2016-May-23 13:31N 53°45' W 000°16'0 0.0
2016-May-23 12:31N 53°45' W 000°16'0 0.0
2016-May-23 11:31N 53°45' W 000°16'0 0.0
2016-May-23 10:31N 53°45' W 000°16'0 0.0
2016-May-23 09:31N 53°45' W 000°16'0 0.0
2016-May-23 08:31N 53°45' W 000°16'0 0.0
2016-May-23 07:31N 53°45' W 000°16'0 0.1
2016-May-23 06:33N 53°44' W 000°16'1 1.0
2016-May-23 05:33N 53°44' W 000°15'8 7.8
2016-May-23 04:33N 53°37' W 000°07'1110.8
2016-May-23 03:33N 53°33' E 000°09'8 8.1
2016-May-23 02:33N 53°33' E 000°23'1111.5
2016-May-23 01:33N 53°43' E 000°33'1414.3
2016-May-23 00:32N 53°57' E 000°27'1414.0
2016-May-22 23:33N 54°11' E 000°27'1514.7
2016-May-22 22:33N 54°26' E 000°32'1514.8
2016-May-22 21:33N 54°40' E 000°37'45116.0
2016-May-21 17:20N 61°48' E 005°07'5 6.4
2016-May-21 16:33N 61°53' E 005°10'  
Track history (hours):
 
Tides and Currents Weather Stations Pressure Air Temp Water Temp Dewpoint Dewpoint Depression Visibility Wind Speed Wind Dir Waves Ship Positions

Marco Polo

Operator: Orient Lines

Last reported at 2016-May-31 03:28 UTC. Time now 2016-May-31 07:51 UTC.
Position N 60°01' E 024°57'.

Type: Ship. MMSI: 308691456.

Date/timePositionNaut miles runAvg speedWind from/ knotsBaromVisibWave heightAir tempDewpointWater temp
2016-May-31 03:28N 60°01' E 024°57'1914.9
2016-May-31 02:10N 59°55' E 025°34'1016.7
2016-May-31 01:34N 59°56' E 025°54'1716.9
2016-May-31 00:33N 60°01' E 026°27'1716.7
2016-May-30 23:33N 59°59' E 027°01'1716.7
2016-May-30 22:33N 60°08' E 027°30'1615.6
2016-May-30 21:33N 60°10' E 028°00'1716.7
2016-May-30 20:33N 60°03' E 028°31'1716.8
2016-May-30 19:33N 60°02' E 029°05'2512.3
2016-May-30 17:33N 59°57' E 029°53'8 7.8
2016-May-30 16:33N 59°57' E 030°08'2 1.6
2016-May-30 15:31N 59°57' E 030°12'0 0.0
2016-May-30 14:31N 59°57' E 030°12'0 0.0
2016-May-30 13:31N 59°57' E 030°12'0 0.0
2016-May-30 12:31N 59°57' E 030°12'0 0.0
2016-May-30 11:28N 59°57' E 030°12'0 0.0
2016-May-30 10:31N 59°57' E 030°12'0 0.0
2016-May-30 09:31N 59°57' E 030°12'0 0.0
2016-May-30 08:31N 59°57' E 030°12'0 0.0
2016-May-30 07:28N 59°57' E 030°12'0 0.0
2016-May-30 06:28N 59°57' E 030°12'0 0.0
2016-May-30 05:31N 59°57' E 030°12'0 0.0
2016-May-30 04:31N 59°57' E 030°12'0 0.0
2016-May-30 03:31N 59°57' E 030°12'0 0.0
2016-May-30 02:31N 59°57' E 030°12'0 0.0
2016-May-30 01:31N 59°57' E 030°12'0 0.0
2016-May-30 00:31N 59°57' E 030°12'0 0.0
2016-May-29 23:31N 59°57' E 030°12'0 0.0
2016-May-29 22:31N 59°57' E 030°12'0 0.0
2016-May-29 21:31N 59°57' E 030°12'0 0.0
2016-May-29 20:31N 59°57' E 030°12'0 0.0
2016-May-29 19:31N 59°57' E 030°12'0 0.0
2016-May-29 18:31N 59°57' E 030°12'0 0.0
2016-May-29 17:31N 59°57' E 030°12'0 0.0
2016-May-29 16:31N 59°57' E 030°12'0 0.0
2016-May-29 15:31N 59°57' E 030°12'0 0.0
2016-May-29 14:31N 59°57' E 030°12'0 0.0
2016-May-29 13:31N 59°57' E 030°12'0 0.0
2016-May-29 12:31N 59°57' E 030°12'0 0.0
2016-May-29 11:31N 59°57' E 030°12'0 0.0
2016-May-29 10:31N 59°57' E 030°12'0 0.0
2016-May-29 09:31N 59°57' E 030°12'0 0.0
2016-May-29 08:31N 59°57' E 030°12'0 0.0
2016-May-29 07:31N 59°57' E 030°12'0 0.0
2016-May-29 06:31N 59°57' E 030°12'0 0.0
2016-May-29 05:31N 59°57' E 030°12'0 0.0
2016-May-29 04:31N 59°57' E 030°12'0 0.0
2016-May-29 03:33N 59°57' E 030°12'7 6.8
2016-May-29 02:33N 59°56' E 029°58'3511.8
2016-May-28 23:34N 60°02' E 028°49'1413.6
2016-May-28 22:33N 60°04' E 028°22'1413.7
2016-May-28 21:33N 60°10' E 027°57'1313.2
2016-May-28 20:33N 60°06' E 027°31'1514.3
2016-May-28 19:29N 59°58' E 027°05'1414.9
2016-May-28 18:33N 59°59' E 026°37'6412.9
2016-May-28 13:34N 59°28' E 024°46'0 0.1
2016-May-28 06:33N 59°27' E 024°46'7 7.0
2016-May-28 05:33N 59°30' E 024°33'2814.2
2016-May-28 03:33N 59°28' E 023°38'1716.9
2016-May-28 02:33N 59°26' E 023°04'1616.4
2016-May-28 01:33N 59°23' E 022°33'31416.4
2016-May-27 06:26N 55°42' E 015°37'1516.5
2016-May-27 05:33N 55°35' E 015°15'1616.4
2016-May-27 04:33N 55°27' E 014°49'1616.2
2016-May-27 03:33N 55°16' E 014°28'1716.8
2016-May-27 02:33N 55°03' E 014°10'1716.7
2016-May-27 01:33N 54°56' E 013°43'1716.9
2016-May-27 00:33N 54°51' E 013°16'1716.7
2016-May-26 23:33N 54°45' E 012°48'1615.6
2016-May-26 22:33N 54°37' E 012°25'1515.5
2016-May-26 21:33N 54°24' E 012°10'1313.2
2016-May-26 20:32N 54°11' E 012°05'1 0.6
2016-May-26 19:27N 54°11' E 012°06'0 0.0
2016-May-26 18:21N 54°11' E 012°06'0 0.0
2016-May-26 16:33N 54°11' E 012°06'0 0.0
2016-May-26 15:30N 54°11' E 012°06'0 0.0
2016-May-26 14:09N 54°11' E 012°06'0 0.0
2016-May-26 12:33N 54°11' E 012°06'0 0.0
2016-May-26 11:33N 54°11' E 012°06'0 0.0
2016-May-26 10:33N 54°11' E 012°06'0 0.0
2016-May-26 09:12N 54°11' E 012°06'0 0.0
2016-May-26 08:33N 54°11' E 012°06'0 0.0
2016-May-26 07:33N 54°11' E 012°06'0 0.0
2016-May-26 06:20N 54°11' E 012°06'0 0.1
2016-May-26 05:33N 54°11' E 012°06'10 9.8
2016-May-26 04:33N 54°18' E 011°55'1414.0
2016-May-26 03:33N 54°26' E 011°35'1514.6
2016-May-26 02:33N 54°34' E 011°14'1615.8
2016-May-26 01:33N 54°43' E 010°52'1515.2
2016-May-26 00:33N 54°58' E 010°58'1615.6
2016-May-25 23:31N 55°14' E 011°06'5015.0
2016-May-25 20:12N 56°03' E 011°06'2916.0
2016-May-25 18:22N 56°10' E 011°57'1315.9
2016-May-25 17:33N 56°12' E 012°20'1716.7
2016-May-25 16:34N 56°00' E 012°41'1615.6
2016-May-25 15:33N 55°45' E 012°41'4 3.8
2016-May-25 14:33N 55°42' E 012°36'0 0.0
2016-May-25 13:33N 55°42' E 012°36'0 0.0
2016-May-25 12:33N 55°42' E 012°36'0 0.0
2016-May-25 11:33N 55°42' E 012°36'0 0.0
2016-May-25 10:33N 55°42' E 012°36'0 0.0
2016-May-25 09:33N 55°42' E 012°36'4 4.5
2016-May-25 08:33N 55°45' E 012°41'1313.1
2016-May-25 07:34N 55°58' E 012°37'1514.6
2016-May-25 06:33N 56°10' E 012°22'1717.4
2016-May-25 05:33N 56°23' E 011°59'1818.3
2016-May-25 04:33N 56°40' E 011°53'1818.3
2016-May-25 03:33N 56°58' E 011°43'1818.1
2016-May-25 02:33N 57°15' E 011°32'1817.6
2016-May-25 01:33N 57°31' E 011°18'1817.8
2016-May-25 00:33N 57°43' E 010°53'1716.6
2016-May-24 23:33N 57°46' E 010°23'37415.6
2016-May-23 23:31N 54°02' E 001°29'1616.7
2016-May-23 22:33N 53°53' E 001°06'1917.2
2016-May-23 21:26N 53°44' E 000°38'1516.7
2016-May-23 20:33N 53°35' E 000°18'1212.2
2016-May-23 19:33N 53°36' W 000°02'1211.9
2016-May-23 18:33N 53°44' W 000°16'0 0.4
2016-May-23 17:28N 53°45' W 000°16'0 0.0
2016-May-23 16:31N 53°45' W 000°16'0 0.0
2016-May-23 15:31N 53°45' W 000°16'0 0.0
2016-May-23 14:31N 53°45' W 000°16'0 0.0
2016-May-23 13:31N 53°45' W 000°16'0 0.0
2016-May-23 12:31N 53°45' W 000°16'0 0.0
2016-May-23 11:31N 53°45' W 000°16'0 0.0
2016-May-23 10:31N 53°45' W 000°16'0 0.0
2016-May-23 09:31N 53°45' W 000°16'0 0.0
2016-May-23 08:31N 53°45' W 000°16'0 0.0
2016-May-23 07:31N 53°45' W 000°16'0 0.1
2016-May-23 06:33N 53°44' W 000°16'1 1.0
2016-May-23 05:33N 53°44' W 000°15'8 7.8
2016-May-23 04:33N 53°37' W 000°07'1110.8
2016-May-23 03:33N 53°33' E 000°09'8 8.1
2016-May-23 02:33N 53°33' E 000°23'1111.5
2016-May-23 01:33N 53°43' E 000°33'1414.3
2016-May-23 00:32N 53°57' E 000°27'1414.0
2016-May-22 23:33N 54°11' E 000°27'1514.7
2016-May-22 22:33N 54°26' E 000°32'1514.8
2016-May-22 21:33N 54°40' E 000°37'45116.0
2016-May-21 17:20N 61°48' E 005°07'5 6.4
2016-May-21 16:33N 61°53' E 005°10'  

Dump ship's entire track history